sensor_id;sensor_type;location;lat;lon;timestamp;temperature;humidity
52245;DHT22;55759;51.586;-1.758;2023-06-22T00:00:39;16.20;87.60
52245;DHT22;55759;51.586;-1.758;2023-06-22T00:03:07;16.20;87.80
52245;DHT22;55759;51.586;-1.758;2023-06-22T00:05:33;16.10;87.70
52245;DHT22;55759;51.586;-1.758;2023-06-22T00:08:01;16.10;87.80
52245;DHT22;55759;51.586;-1.758;2023-06-22T00:10:27;16.10;87.50
52245;DHT22;55759;51.586;-1.758;2023-06-22T00:12:53;16.10;87.80
52245;DHT22;55759;51.586;-1.758;2023-06-22T00:15:18;16.10;87.70
52245;DHT22;55759;51.586;-1.758;2023-06-22T00:17:45;16.10;88.20
52245;DHT22;55759;51.586;-1.758;2023-06-22T00:20:11;16.00;88.30
52245;DHT22;55759;51.586;-1.758;2023-06-22T00:22:36;15.90;88.40
52245;DHT22;55759;51.586;-1.758;2023-06-22T00:25:07;15.90;88.30
52245;DHT22;55759;51.586;-1.758;2023-06-22T00:27:33;16.00;88.20
52245;DHT22;55759;51.586;-1.758;2023-06-22T00:29:58;15.90;88.20
52245;DHT22;55759;51.586;-1.758;2023-06-22T00:32:24;15.90;88.60
52245;DHT22;55759;51.586;-1.758;2023-06-22T00:34:49;15.90;88.80
52245;DHT22;55759;51.586;-1.758;2023-06-22T00:37:16;15.80;89.00
52245;DHT22;55759;51.586;-1.758;2023-06-22T00:39:45;15.80;89.20
52245;DHT22;55759;51.586;-1.758;2023-06-22T00:42:10;15.70;89.20
52245;DHT22;55759;51.586;-1.758;2023-06-22T00:44:36;15.60;89.30
52245;DHT22;55759;51.586;-1.758;2023-06-22T00:47:02;15.70;89.50
52245;DHT22;55759;51.586;-1.758;2023-06-22T00:49:28;15.60;89.70
52245;DHT22;55759;51.586;-1.758;2023-06-22T00:51:53;15.60;89.80
52245;DHT22;55759;51.586;-1.758;2023-06-22T00:54:19;15.60;89.90
52245;DHT22;55759;51.586;-1.758;2023-06-22T00:56:52;15.60;90.00
52245;DHT22;55759;51.586;-1.758;2023-06-22T00:59:20;15.60;90.00
52245;DHT22;55759;51.586;-1.758;2023-06-22T01:01:45;15.60;90.10
52245;DHT22;55759;51.586;-1.758;2023-06-22T01:04:11;15.50;90.20
52245;DHT22;55759;51.586;-1.758;2023-06-22T01:06:38;15.50;90.20
52245;DHT22;55759;51.586;-1.758;2023-06-22T01:09:09;15.40;90.20
52245;DHT22;55759;51.586;-1.758;2023-06-22T01:11:50;15.40;90.20
52245;DHT22;55759;51.586;-1.758;2023-06-22T01:14:25;15.40;90.30
52245;DHT22;55759;51.586;-1.758;2023-06-22T01:16:53;15.40;90.40
52245;DHT22;55759;51.586;-1.758;2023-06-22T01:22:07;15.20;90.50
52245;DHT22;55759;51.586;-1.758;2023-06-22T01:29:39;15.10;91.00
52245;DHT22;55759;51.586;-1.758;2023-06-22T01:32:05;15.10;91.00
52245;DHT22;55759;51.586;-1.758;2023-06-22T01:34:31;15.20;91.10
52245;DHT22;55759;51.586;-1.758;2023-06-22T01:36:58;15.10;91.10
52245;DHT22;55759;51.586;-1.758;2023-06-22T01:39:24;15.10;91.20
52245;DHT22;55759;51.586;-1.758;2023-06-22T01:41:50;15.10;91.30
52245;DHT22;55759;51.586;-1.758;2023-06-22T01:44:15;15.10;91.30
52245;DHT22;55759;51.586;-1.758;2023-06-22T01:46:41;15.10;91.40
52245;DHT22;55759;51.586;-1.758;2023-06-22T01:49:07;15.00;91.50
52245;DHT22;55759;51.586;-1.758;2023-06-22T01:51:33;15.10;91.60
52245;DHT22;55759;51.586;-1.758;2023-06-22T01:53:58;15.10;91.60
52245;DHT22;55759;51.586;-1.758;2023-06-22T01:56:24;15.10;91.70
52245;DHT22;55759;51.586;-1.758;2023-06-22T01:58:55;15.10;91.70
52245;DHT22;55759;51.586;-1.758;2023-06-22T02:01:24;15.10;91.70
52245;DHT22;55759;51.586;-1.758;2023-06-22T02:03:53;15.10;91.70
52245;DHT22;55759;51.586;-1.758;2023-06-22T02:06:27;15.10;91.70
52245;DHT22;55759;51.586;-1.758;2023-06-22T02:08:57;15.10;91.60
52245;DHT22;55759;51.586;-1.758;2023-06-22T02:11:24;15.20;91.60
52245;DHT22;55759;51.586;-1.758;2023-06-22T02:13:52;15.20;91.50
52245;DHT22;55759;51.586;-1.758;2023-06-22T02:16:18;15.20;91.40
52245;DHT22;55759;51.586;-1.758;2023-06-22T02:18:48;15.20;91.40
52245;DHT22;55759;51.586;-1.758;2023-06-22T02:21:16;15.20;91.40
52245;DHT22;55759;51.586;-1.758;2023-06-22T02:23:42;15.20;91.40
52245;DHT22;55759;51.586;-1.758;2023-06-22T02:26:08;15.20;91.40
52245;DHT22;55759;51.586;-1.758;2023-06-22T02:28:33;15.20;91.40
52245;DHT22;55759;51.586;-1.758;2023-06-22T02:30:59;15.20;91.40
52245;DHT22;55759;51.586;-1.758;2023-06-22T02:33:24;15.20;91.30
52245;DHT22;55759;51.586;-1.758;2023-06-22T02:35:50;15.30;91.30
52245;DHT22;55759;51.586;-1.758;2023-06-22T02:38:16;15.30;91.30
52245;DHT22;55759;51.586;-1.758;2023-06-22T02:40:42;15.30;91.20
52245;DHT22;55759;51.586;-1.758;2023-06-22T02:43:08;15.40;91.10
52245;DHT22;55759;51.586;-1.758;2023-06-22T02:45:34;15.40;91.00
52245;DHT22;55759;51.586;-1.758;2023-06-22T02:48:01;15.40;91.00
52245;DHT22;55759;51.586;-1.758;2023-06-22T02:50:27;15.40;91.00
52245;DHT22;55759;51.586;-1.758;2023-06-22T02:52:52;15.40;91.00
52245;DHT22;55759;51.586;-1.758;2023-06-22T02:55:18;15.30;91.10
52245;DHT22;55759;51.586;-1.758;2023-06-22T02:57:44;15.40;91.00
52245;DHT22;55759;51.586;-1.758;2023-06-22T03:00:11;15.40;91.00
52245;DHT22;55759;51.586;-1.758;2023-06-22T03:02:45;15.30;91.00
52245;DHT22;55759;51.586;-1.758;2023-06-22T03:05:11;15.30;91.00
52245;DHT22;55759;51.586;-1.758;2023-06-22T03:07:42;15.30;91.00
52245;DHT22;55759;51.586;-1.758;2023-06-22T03:10:08;15.30;91.10
52245;DHT22;55759;51.586;-1.758;2023-06-22T03:12:35;15.30;91.10
52245;DHT22;55759;51.586;-1.758;2023-06-22T03:15:00;15.20;91.10
52245;DHT22;55759;51.586;-1.758;2023-06-22T03:17:26;15.20;91.10
52245;DHT22;55759;51.586;-1.758;2023-06-22T03:19:52;15.20;91.20
52245;DHT22;55759;51.586;-1.758;2023-06-22T03:22:17;15.20;91.20
52245;DHT22;55759;51.586;-1.758;2023-06-22T03:24:43;15.20;91.30
52245;DHT22;55759;51.586;-1.758;2023-06-22T03:27:08;15.20;91.30
52245;DHT22;55759;51.586;-1.758;2023-06-22T03:29:34;15.20;91.30
52245;DHT22;55759;51.586;-1.758;2023-06-22T03:31:59;15.10;91.40
52245;DHT22;55759;51.586;-1.758;2023-06-22T03:34:25;15.10;91.40
52245;DHT22;55759;51.586;-1.758;2023-06-22T03:36:51;15.10;91.50
52245;DHT22;55759;51.586;-1.758;2023-06-22T03:39:16;15.10;91.50
52245;DHT22;55759;51.586;-1.758;2023-06-22T03:41:42;15.00;91.50
52245;DHT22;55759;51.586;-1.758;2023-06-22T03:44:07;15.00;91.60
52245;DHT22;55759;51.586;-1.758;2023-06-22T03:46:37;15.00;91.60
52245;DHT22;55759;51.586;-1.758;2023-06-22T03:49:03;14.90;91.60
52245;DHT22;55759;51.586;-1.758;2023-06-22T03:51:29;14.90;91.70
52245;DHT22;55759;51.586;-1.758;2023-06-22T03:53:54;14.80;91.70
52245;DHT22;55759;51.586;-1.758;2023-06-22T03:56:20;14.80;91.80
52245;DHT22;55759;51.586;-1.758;2023-06-22T03:58:46;14.80;91.90
52245;DHT22;55759;51.586;-1.758;2023-06-22T04:01:11;14.80;91.90
52245;DHT22;55759;51.586;-1.758;2023-06-22T04:03:37;14.80;91.90
52245;DHT22;55759;51.586;-1.758;2023-06-22T04:06:03;14.80;92.00
52245;DHT22;55759;51.586;-1.758;2023-06-22T04:08:29;14.80;92.10
52245;DHT22;55759;51.586;-1.758;2023-06-22T04:10:55;14.80;92.10
52245;DHT22;55759;51.586;-1.758;2023-06-22T04:13:20;14.90;92.10
52245;DHT22;55759;51.586;-1.758;2023-06-22T04:15:46;14.90;92.00
52245;DHT22;55759;51.586;-1.758;2023-06-22T04:18:11;14.90;92.10
52245;DHT22;55759;51.586;-1.758;2023-06-22T04:20:38;14.90;92.10
52245;DHT22;55759;51.586;-1.758;2023-06-22T04:23:04;15.00;92.10
52245;DHT22;55759;51.586;-1.758;2023-06-22T04:25:29;15.00;92.00
52245;DHT22;55759;51.586;-1.758;2023-06-22T04:27:55;15.10;92.00
52245;DHT22;55759;51.586;-1.758;2023-06-22T04:30:21;15.10;92.00
52245;DHT22;55759;51.586;-1.758;2023-06-22T04:32:47;15.10;91.90
52245;DHT22;55759;51.586;-1.758;2023-06-22T04:35:21;15.10;91.80
52245;DHT22;55759;51.586;-1.758;2023-06-22T04:37:48;15.20;91.70
52245;DHT22;55759;51.586;-1.758;2023-06-22T04:40:13;15.20;91.70
52245;DHT22;55759;51.586;-1.758;2023-06-22T04:42:39;15.20;91.60
52245;DHT22;55759;51.586;-1.758;2023-06-22T04:45:05;15.30;91.50
52245;DHT22;55759;51.586;-1.758;2023-06-22T04:47:31;15.40;91.50
52245;DHT22;55759;51.586;-1.758;2023-06-22T04:49:56;15.50;91.30
52245;DHT22;55759;51.586;-1.758;2023-06-22T04:52:22;15.60;91.00
52245;DHT22;55759;51.586;-1.758;2023-06-22T04:54:47;15.60;90.90
52245;DHT22;55759;51.586;-1.758;2023-06-22T04:57:14;15.70;91.00
52245;DHT22;55759;51.586;-1.758;2023-06-22T04:59:39;15.70;90.80
52245;DHT22;55759;51.586;-1.758;2023-06-22T05:02:07;15.70;90.70
52245;DHT22;55759;51.586;-1.758;2023-06-22T05:04:33;15.70;90.50
52245;DHT22;55759;51.586;-1.758;2023-06-22T05:07:01;15.70;90.50
52245;DHT22;55759;51.586;-1.758;2023-06-22T05:09:27;15.70;90.30
52245;DHT22;55759;51.586;-1.758;2023-06-22T05:11:53;15.60;90.40
52245;DHT22;55759;51.586;-1.758;2023-06-22T05:14:18;15.60;90.50
52245;DHT22;55759;51.586;-1.758;2023-06-22T05:16:44;15.60;90.40
52245;DHT22;55759;51.586;-1.758;2023-06-22T05:19:10;15.50;90.60
52245;DHT22;55759;51.586;-1.758;2023-06-22T05:21:36;15.50;90.60
52245;DHT22;55759;51.586;-1.758;2023-06-22T05:24:02;15.40;90.70
52245;DHT22;55759;51.586;-1.758;2023-06-22T05:26:28;15.40;90.70
52245;DHT22;55759;51.586;-1.758;2023-06-22T05:28:54;15.40;90.60
52245;DHT22;55759;51.586;-1.758;2023-06-22T05:31:20;15.40;90.80
52245;DHT22;55759;51.586;-1.758;2023-06-22T05:33:46;15.40;90.90
52245;DHT22;55759;51.586;-1.758;2023-06-22T05:36:12;15.40;91.00
52245;DHT22;55759;51.586;-1.758;2023-06-22T05:38:38;15.40;91.00
52245;DHT22;55759;51.586;-1.758;2023-06-22T05:41:03;15.40;91.00
52245;DHT22;55759;51.586;-1.758;2023-06-22T05:43:29;15.40;91.10
52245;DHT22;55759;51.586;-1.758;2023-06-22T05:45:55;15.50;91.30
52245;DHT22;55759;51.586;-1.758;2023-06-22T05:48:20;15.60;91.50
52245;DHT22;55759;51.586;-1.758;2023-06-22T05:50:46;15.60;91.30
52245;DHT22;55759;51.586;-1.758;2023-06-22T05:53:11;15.70;91.10
52245;DHT22;55759;51.586;-1.758;2023-06-22T05:55:37;15.80;90.80
52245;DHT22;55759;51.586;-1.758;2023-06-22T05:58:02;15.90;90.80
52245;DHT22;55759;51.586;-1.758;2023-06-22T06:00:31;16.00;90.70
52245;DHT22;55759;51.586;-1.758;2023-06-22T06:02:56;16.10;90.40
52245;DHT22;55759;51.586;-1.758;2023-06-22T06:05:22;16.10;90.10
52245;DHT22;55759;51.586;-1.758;2023-06-22T06:07:51;16.20;90.10
52245;DHT22;55759;51.586;-1.758;2023-06-22T06:10:16;16.30;89.60
52245;DHT22;55759;51.586;-1.758;2023-06-22T06:12:42;16.40;89.40
52245;DHT22;55759;51.586;-1.758;2023-06-22T06:15:07;16.50;89.50
52245;DHT22;55759;51.586;-1.758;2023-06-22T06:17:33;16.60;89.10
52245;DHT22;55759;51.586;-1.758;2023-06-22T06:19:59;16.70;89.10
52245;DHT22;55759;51.586;-1.758;2023-06-22T06:22:25;16.80;89.00
52245;DHT22;55759;51.586;-1.758;2023-06-22T06:24:50;16.90;88.80
52245;DHT22;55759;51.586;-1.758;2023-06-22T06:27:16;16.90;88.00
52245;DHT22;55759;51.586;-1.758;2023-06-22T06:29:43;17.00;87.90
52245;DHT22;55759;51.586;-1.758;2023-06-22T06:32:11;17.10;87.90
52245;DHT22;55759;51.586;-1.758;2023-06-22T06:34:36;17.20;86.80
52245;DHT22;55759;51.586;-1.758;2023-06-22T06:37:02;17.30;86.80
52245;DHT22;55759;51.586;-1.758;2023-06-22T06:39:27;17.40;86.20
52245;DHT22;55759;51.586;-1.758;2023-06-22T06:41:53;17.50;86.10
52245;DHT22;55759;51.586;-1.758;2023-06-22T06:44:19;17.60;85.80
52245;DHT22;55759;51.586;-1.758;2023-06-22T06:46:44;17.60;85.60
52245;DHT22;55759;51.586;-1.758;2023-06-22T06:49:10;17.70;85.50
52245;DHT22;55759;51.586;-1.758;2023-06-22T06:51:35;17.80;85.30
52245;DHT22;55759;51.586;-1.758;2023-06-22T06:54:01;17.80;84.20
52245;DHT22;55759;51.586;-1.758;2023-06-22T06:56:28;17.90;84.10
52245;DHT22;55759;51.586;-1.758;2023-06-22T06:58:54;18.00;84.30
52245;DHT22;55759;51.586;-1.758;2023-06-22T07:01:20;18.00;84.50
52245;DHT22;55759;51.586;-1.758;2023-06-22T07:03:46;18.10;85.00
52245;DHT22;55759;51.586;-1.758;2023-06-22T07:06:13;18.20;84.80
52245;DHT22;55759;51.586;-1.758;2023-06-22T07:08:38;18.30;84.90
52245;DHT22;55759;51.586;-1.758;2023-06-22T07:11:05;18.50;84.80
52245;DHT22;55759;51.586;-1.758;2023-06-22T07:13:30;18.60;82.40
52245;DHT22;55759;51.586;-1.758;2023-06-22T07:15:56;18.60;83.30
52245;DHT22;55759;51.586;-1.758;2023-06-22T07:18:22;18.80;81.80
52245;DHT22;55759;51.586;-1.758;2023-06-22T07:20:47;18.90;81.60
52245;DHT22;55759;51.586;-1.758;2023-06-22T07:23:13;19.10;81.70
52245;DHT22;55759;51.586;-1.758;2023-06-22T07:25:38;19.30;82.60
52245;DHT22;55759;51.586;-1.758;2023-06-22T07:28:04;19.50;82.50
52245;DHT22;55759;51.586;-1.758;2023-06-22T07:30:31;19.60;79.50
52245;DHT22;55759;51.586;-1.758;2023-06-22T07:32:57;19.70;78.90
52245;DHT22;55759;51.586;-1.758;2023-06-22T07:35:23;19.80;78.10
52245;DHT22;55759;51.586;-1.758;2023-06-22T07:37:49;19.90;79.90
52245;DHT22;55759;51.586;-1.758;2023-06-22T07:40:14;20.00;77.50
52245;DHT22;55759;51.586;-1.758;2023-06-22T07:42:40;20.10;78.20
52245;DHT22;55759;51.586;-1.758;2023-06-22T07:45:06;20.20;78.70
52245;DHT22;55759;51.586;-1.758;2023-06-22T07:47:33;20.30;79.10
52245;DHT22;55759;51.586;-1.758;2023-06-22T07:50:00;20.40;75.40
52245;DHT22;55759;51.586;-1.758;2023-06-22T07:52:27;20.40;75.40
52245;DHT22;55759;51.586;-1.758;2023-06-22T07:54:52;20.50;77.40
52245;DHT22;55759;51.586;-1.758;2023-06-22T07:57:18;20.60;78.00
52245;DHT22;55759;51.586;-1.758;2023-06-22T07:59:44;20.60;77.30
52245;DHT22;55759;51.586;-1.758;2023-06-22T08:02:09;20.70;76.20
52245;DHT22;55759;51.586;-1.758;2023-06-22T08:04:35;20.70;74.80
52245;DHT22;55759;51.586;-1.758;2023-06-22T08:07:01;20.90;77.30
52245;DHT22;55759;51.586;-1.758;2023-06-22T08:09:28;21.00;76.50
52245;DHT22;55759;51.586;-1.758;2023-06-22T08:11:53;21.10;75.90
52245;DHT22;55759;51.586;-1.758;2023-06-22T08:14:20;21.30;76.30
52245;DHT22;55759;51.586;-1.758;2023-06-22T08:16:46;21.40;73.90
52245;DHT22;55759;51.586;-1.758;2023-06-22T08:19:12;21.40;73.60
52245;DHT22;55759;51.586;-1.758;2023-06-22T08:21:38;21.60;72.70
52245;DHT22;55759;51.586;-1.758;2023-06-22T08:24:04;21.50;73.60
52245;DHT22;55759;51.586;-1.758;2023-06-22T08:26:29;21.60;75.10
52245;DHT22;55759;51.586;-1.758;2023-06-22T08:28:55;21.70;75.50
52245;DHT22;55759;51.586;-1.758;2023-06-22T08:31:21;21.80;74.00
52245;DHT22;55759;51.586;-1.758;2023-06-22T08:33:46;21.80;74.20
52245;DHT22;55759;51.586;-1.758;2023-06-22T08:36:12;21.90;74.10
52245;DHT22;55759;51.586;-1.758;2023-06-22T08:38:38;22.10;73.10
52245;DHT22;55759;51.586;-1.758;2023-06-22T08:41:04;22.20;73.10
52245;DHT22;55759;51.586;-1.758;2023-06-22T08:43:30;22.40;73.20
52245;DHT22;55759;51.586;-1.758;2023-06-22T08:45:55;22.60;71.90
52245;DHT22;55759;51.586;-1.758;2023-06-22T08:48:21;22.70;72.80
52245;DHT22;55759;51.586;-1.758;2023-06-22T08:50:46;22.90;73.60
52245;DHT22;55759;51.586;-1.758;2023-06-22T08:53:12;23.00;70.80
52245;DHT22;55759;51.586;-1.758;2023-06-22T08:55:38;23.00;68.80
52245;DHT22;55759;51.586;-1.758;2023-06-22T08:58:03;23.10;71.30
52245;DHT22;55759;51.586;-1.758;2023-06-22T09:00:29;23.10;71.30
52245;DHT22;55759;51.586;-1.758;2023-06-22T09:02:58;23.20;71.00
52245;DHT22;55759;51.586;-1.758;2023-06-22T09:05:24;23.40;65.80
52245;DHT22;55759;51.586;-1.758;2023-06-22T09:07:51;23.60;64.00
52245;DHT22;55759;51.586;-1.758;2023-06-22T09:10:17;23.80;66.30
52245;DHT22;55759;51.586;-1.758;2023-06-22T09:12:43;23.90;61.80
52245;DHT22;55759;51.586;-1.758;2023-06-22T09:15:09;24.10;62.90
52245;DHT22;55759;51.586;-1.758;2023-06-22T09:17:35;24.30;62.70
52245;DHT22;55759;51.586;-1.758;2023-06-22T09:20:02;24.60;60.20
52245;DHT22;55759;51.586;-1.758;2023-06-22T09:22:31;24.80;60.90
52245;DHT22;55759;51.586;-1.758;2023-06-22T09:24:56;25.20;61.20
52245;DHT22;55759;51.586;-1.758;2023-06-22T09:27:22;25.60;59.10
52245;DHT22;55759;51.586;-1.758;2023-06-22T09:29:48;25.80;54.90
52245;DHT22;55759;51.586;-1.758;2023-06-22T09:32:14;26.10;55.40
52245;DHT22;55759;51.586;-1.758;2023-06-22T09:34:39;26.30;52.30
52245;DHT22;55759;51.586;-1.758;2023-06-22T09:37:05;26.40;56.90
52245;DHT22;55759;51.586;-1.758;2023-06-22T09:39:30;26.50;55.00
52245;DHT22;55759;51.586;-1.758;2023-06-22T09:41:58;26.70;56.00
52245;DHT22;55759;51.586;-1.758;2023-06-22T09:44:24;27.10;54.20
52245;DHT22;55759;51.586;-1.758;2023-06-22T09:46:49;27.40;56.70
52245;DHT22;55759;51.586;-1.758;2023-06-22T09:49:15;27.40;50.90
52245;DHT22;55759;51.586;-1.758;2023-06-22T09:51:40;27.50;51.40
52245;DHT22;55759;51.586;-1.758;2023-06-22T09:54:06;27.60;52.90
52245;DHT22;55759;51.586;-1.758;2023-06-22T09:56:32;27.60;44.90
52245;DHT22;55759;51.586;-1.758;2023-06-22T09:58:57;27.40;50.50
52245;DHT22;55759;51.586;-1.758;2023-06-22T10:01:23;27.20;51.10
52245;DHT22;55759;51.586;-1.758;2023-06-22T10:03:50;27.10;47.60
52245;DHT22;55759;51.586;-1.758;2023-06-22T10:06:15;27.10;51.60
52245;DHT22;55759;51.586;-1.758;2023-06-22T10:08:41;27.00;49.70
52245;DHT22;55759;51.586;-1.758;2023-06-22T10:11:06;27.00;50.10
52245;DHT22;55759;51.586;-1.758;2023-06-22T10:13:32;27.00;46.60
52245;DHT22;55759;51.586;-1.758;2023-06-22T10:15:57;27.10;50.30
52245;DHT22;55759;51.586;-1.758;2023-06-22T10:18:23;27.40;46.50
52245;DHT22;55759;51.586;-1.758;2023-06-22T10:20:49;27.80;50.20
52245;DHT22;55759;51.586;-1.758;2023-06-22T10:23:21;28.40;51.20
52245;DHT22;55759;51.586;-1.758;2023-06-22T10:25:47;29.20;45.70
52245;DHT22;55759;51.586;-1.758;2023-06-22T10:28:13;30.20;47.90
52245;DHT22;55759;51.586;-1.758;2023-06-22T10:30:41;31.40;42.80
52245;DHT22;55759;51.586;-1.758;2023-06-22T10:33:07;32.50;43.70
52245;DHT22;55759;51.586;-1.758;2023-06-22T10:35:33;33.70;39.70
52245;DHT22;55759;51.586;-1.758;2023-06-22T10:37:59;34.80;38.70
52245;DHT22;55759;51.586;-1.758;2023-06-22T10:40:25;35.70;37.70
52245;DHT22;55759;51.586;-1.758;2023-06-22T10:42:50;36.60;35.40
52245;DHT22;55759;51.586;-1.758;2023-06-22T10:45:16;37.50;30.50
52245;DHT22;55759;51.586;-1.758;2023-06-22T10:47:41;38.00;33.00
52245;DHT22;55759;51.586;-1.758;2023-06-22T10:50:07;38.10;31.40
52245;DHT22;55759;51.586;-1.758;2023-06-22T10:52:33;36.60;33.60
52245;DHT22;55759;51.586;-1.758;2023-06-22T10:54:59;36.00;33.20
52245;DHT22;55759;51.586;-1.758;2023-06-22T10:57:24;35.60;35.50
52245;DHT22;55759;51.586;-1.758;2023-06-22T10:59:50;36.30;38.10
52245;DHT22;55759;51.586;-1.758;2023-06-22T11:02:15;37.90;35.00
52245;DHT22;55759;51.586;-1.758;2023-06-22T11:04:41;39.50;29.60
52245;DHT22;55759;51.586;-1.758;2023-06-22T11:07:07;40.60;29.80
52245;DHT22;55759;51.586;-1.758;2023-06-22T11:09:32;41.60;26.80
52245;DHT22;55759;51.586;-1.758;2023-06-22T11:11:58;40.80;27.60
52245;DHT22;55759;51.586;-1.758;2023-06-22T11:14:24;38.80;29.10
52245;DHT22;55759;51.586;-1.758;2023-06-22T11:16:50;36.80;29.50
52245;DHT22;55759;51.586;-1.758;2023-06-22T11:19:16;34.90;32.50
52245;DHT22;55759;51.586;-1.758;2023-06-22T11:21:42;33.20;35.70
52245;DHT22;55759;51.586;-1.758;2023-06-22T11:24:08;32.10;38.00
52245;DHT22;55759;51.586;-1.758;2023-06-22T11:26:35;31.40;45.30
52245;DHT22;55759;51.586;-1.758;2023-06-22T11:29:02;31.20;43.40
52245;DHT22;55759;51.586;-1.758;2023-06-22T11:31:39;32.50;40.80
52245;DHT22;55759;51.586;-1.758;2023-06-22T11:34:05;35.30;39.60
52245;DHT22;55759;51.586;-1.758;2023-06-22T11:36:31;38.50;32.80
52245;DHT22;55759;51.586;-1.758;2023-06-22T11:38:58;40.90;29.10
52245;DHT22;55759;51.586;-1.758;2023-06-22T11:41:24;43.00;24.90
52245;DHT22;55759;51.586;-1.758;2023-06-22T11:43:52;42.40;25.50
52245;DHT22;55759;51.586;-1.758;2023-06-22T11:46:18;40.10;27.00
52245;DHT22;55759;51.586;-1.758;2023-06-22T11:48:46;37.60;30.60
52245;DHT22;55759;51.586;-1.758;2023-06-22T11:51:12;35.60;32.30
52245;DHT22;55759;51.586;-1.758;2023-06-22T11:53:38;34.20;39.30
52245;DHT22;55759;51.586;-1.758;2023-06-22T11:56:03;33.10;38.60
52245;DHT22;55759;51.586;-1.758;2023-06-22T11:58:29;32.10;38.10
52245;DHT22;55759;51.586;-1.758;2023-06-22T12:00:54;34.00;38.90
52245;DHT22;55759;51.586;-1.758;2023-06-22T12:03:20;37.50;35.50
52245;DHT22;55759;51.586;-1.758;2023-06-22T12:05:49;40.50;29.50
52245;DHT22;55759;51.586;-1.758;2023-06-22T12:08:16;42.80;25.80
52245;DHT22;55759;51.586;-1.758;2023-06-22T12:10:41;44.30;24.10
52245;DHT22;55759;51.586;-1.758;2023-06-22T12:13:07;45.20;23.50
52245;DHT22;55759;51.586;-1.758;2023-06-22T12:15:32;45.30;25.30
52245;DHT22;55759;51.586;-1.758;2023-06-22T12:17:58;45.90;23.80
52245;DHT22;55759;51.586;-1.758;2023-06-22T12:20:24;46.40;24.80
52245;DHT22;55759;51.586;-1.758;2023-06-22T12:22:49;47.30;24.10
52245;DHT22;55759;51.586;-1.758;2023-06-22T12:25:17;47.60;21.10
52245;DHT22;55759;51.586;-1.758;2023-06-22T12:27:42;48.10;24.30
52245;DHT22;55759;51.586;-1.758;2023-06-22T12:30:11;48.90;22.90
52245;DHT22;55759;51.586;-1.758;2023-06-22T12:32:39;49.70;20.80
52245;DHT22;55759;51.586;-1.758;2023-06-22T12:35:05;49.80;21.30
52245;DHT22;55759;51.586;-1.758;2023-06-22T12:37:32;50.10;21.80
52245;DHT22;55759;51.586;-1.758;2023-06-22T12:39:59;49.00;23.30
52245;DHT22;55759;51.586;-1.758;2023-06-22T12:42:27;47.30;23.10
52245;DHT22;55759;51.586;-1.758;2023-06-22T12:45:04;47.30;22.40
52245;DHT22;55759;51.586;-1.758;2023-06-22T12:47:35;45.90;24.80
52245;DHT22;55759;51.586;-1.758;2023-06-22T12:50:00;44.20;27.10
52245;DHT22;55759;51.586;-1.758;2023-06-22T12:52:26;45.20;25.40
52245;DHT22;55759;51.586;-1.758;2023-06-22T12:54:52;45.00;26.60
52245;DHT22;55759;51.586;-1.758;2023-06-22T12:57:17;43.50;25.50
52245;DHT22;55759;51.586;-1.758;2023-06-22T12:59:44;43.50;27.60
52245;DHT22;55759;51.586;-1.758;2023-06-22T13:02:10;45.10;26.00
52245;DHT22;55759;51.586;-1.758;2023-06-22T13:04:38;46.60;21.30
52245;DHT22;55759;51.586;-1.758;2023-06-22T13:07:04;47.60;28.40
52245;DHT22;55759;51.586;-1.758;2023-06-22T13:09:30;48.70;24.00
52245;DHT22;55759;51.586;-1.758;2023-06-22T13:11:56;48.90;23.30
52245;DHT22;55759;51.586;-1.758;2023-06-22T13:14:22;48.10;23.00
52245;DHT22;55759;51.586;-1.758;2023-06-22T13:16:47;45.30;24.40
52245;DHT22;55759;51.586;-1.758;2023-06-22T13:19:13;42.50;29.20
52245;DHT22;55759;51.586;-1.758;2023-06-22T13:21:38;40.10;32.40
52245;DHT22;55759;51.586;-1.758;2023-06-22T13:24:04;38.50;38.20
52245;DHT22;55759;51.586;-1.758;2023-06-22T13:26:31;37.70;38.00
52245;DHT22;55759;51.586;-1.758;2023-06-22T13:29:00;36.50;40.20
52245;DHT22;55759;51.586;-1.758;2023-06-22T13:31:25;35.40;42.50
52245;DHT22;55759;51.586;-1.758;2023-06-22T13:33:51;34.40;38.60
52245;DHT22;55759;51.586;-1.758;2023-06-22T13:36:18;33.60;42.90
52245;DHT22;55759;51.586;-1.758;2023-06-22T13:38:43;33.10;39.80
52245;DHT22;55759;51.586;-1.758;2023-06-22T13:41:12;35.00;41.50
52245;DHT22;55759;51.586;-1.758;2023-06-22T13:43:38;38.40;36.20
52245;DHT22;55759;51.586;-1.758;2023-06-22T13:46:03;41.70;33.10
52245;DHT22;55759;51.586;-1.758;2023-06-22T13:48:29;43.70;25.70
52245;DHT22;55759;51.586;-1.758;2023-06-22T13:50:54;43.00;24.80
52245;DHT22;55759;51.586;-1.758;2023-06-22T13:53:20;42.40;28.90
52245;DHT22;55759;51.586;-1.758;2023-06-22T13:55:45;41.00;27.20
52245;DHT22;55759;51.586;-1.758;2023-06-22T13:58:13;41.80;30.80
52245;DHT22;55759;51.586;-1.758;2023-06-22T14:00:38;44.00;24.20
52245;DHT22;55759;51.586;-1.758;2023-06-22T14:03:04;45.40;26.60
52245;DHT22;55759;51.586;-1.758;2023-06-22T14:05:29;45.50;26.70
52245;DHT22;55759;51.586;-1.758;2023-06-22T14:07:55;46.70;25.90
52245;DHT22;55759;51.586;-1.758;2023-06-22T14:10:21;47.30;26.10
52245;DHT22;55759;51.586;-1.758;2023-06-22T14:12:47;45.50;27.00
52245;DHT22;55759;51.586;-1.758;2023-06-22T14:15:12;43.40;28.10
52245;DHT22;55759;51.586;-1.758;2023-06-22T14:17:38;42.00;29.00
52245;DHT22;55759;51.586;-1.758;2023-06-22T14:20:21;43.10;26.60
52245;DHT22;55759;51.586;-1.758;2023-06-22T14:22:46;45.20;28.30
52245;DHT22;55759;51.586;-1.758;2023-06-22T14:25:15;45.80;23.30
52245;DHT22;55759;51.586;-1.758;2023-06-22T14:27:41;44.00;26.60
52245;DHT22;55759;51.586;-1.758;2023-06-22T14:30:14;41.70;32.20
52245;DHT22;55759;51.586;-1.758;2023-06-22T14:32:40;39.90;32.50
52245;DHT22;55759;51.586;-1.758;2023-06-22T14:35:05;39.60;33.30
52245;DHT22;55759;51.586;-1.758;2023-06-22T14:37:31;41.30;30.60
52245;DHT22;55759;51.586;-1.758;2023-06-22T14:39:56;44.00;25.10
52245;DHT22;55759;51.586;-1.758;2023-06-22T14:42:22;46.00;24.90
52245;DHT22;55759;51.586;-1.758;2023-06-22T14:44:48;47.60;25.50
52245;DHT22;55759;51.586;-1.758;2023-06-22T14:47:14;48.90;26.70
52245;DHT22;55759;51.586;-1.758;2023-06-22T14:49:39;50.00;21.60
52245;DHT22;55759;51.586;-1.758;2023-06-22T14:52:09;50.60;18.90
52245;DHT22;55759;51.586;-1.758;2023-06-22T14:54:34;50.70;24.20
52245;DHT22;55759;51.586;-1.758;2023-06-22T14:57:02;51.10;23.60
52245;DHT22;55759;51.586;-1.758;2023-06-22T14:59:28;51.30;23.70
52245;DHT22;55759;51.586;-1.758;2023-06-22T15:01:53;51.60;22.40
52245;DHT22;55759;51.586;-1.758;2023-06-22T15:04:19;52.10;24.00
52245;DHT22;55759;51.586;-1.758;2023-06-22T15:06:45;50.90;23.90
52245;DHT22;55759;51.586;-1.758;2023-06-22T15:09:10;47.50;25.70
52245;DHT22;55759;51.586;-1.758;2023-06-22T15:11:36;44.60;28.30
52245;DHT22;55759;51.586;-1.758;2023-06-22T15:14:02;42.10;36.00
52245;DHT22;55759;51.586;-1.758;2023-06-22T15:16:27;40.20;38.00